sensor_id;sensor_type;location;lat;lon;timestamp;P1;durP1;ratioP1;P2;durP2;ratioP2
2055;SDS011;1033;52.560;13.374;2022-08-01T00:00:13;7.87;;;5.47;;
2055;SDS011;1033;52.560;13.374;2022-08-01T00:02:42;5.53;;;4.90;;
2055;SDS011;1033;52.560;13.374;2022-08-01T00:05:12;5.17;;;4.77;;
2055;SDS011;1033;52.560;13.374;2022-08-01T00:07:41;6.07;;;5.57;;
2055;SDS011;1033;52.560;13.374;2022-08-01T00:10:12;5.30;;;4.80;;
2055;SDS011;1033;52.560;13.374;2022-08-01T00:12:43;6.77;;;4.90;;
2055;SDS011;1033;52.560;13.374;2022-08-01T00:15:14;6.90;;;5.20;;
2055;SDS011;1033;52.560;13.374;2022-08-01T00:17:44;5.70;;;5.20;;
2055;SDS011;1033;52.560;13.374;2022-08-01T00:20:15;6.30;;;5.70;;
2055;SDS011;1033;52.560;13.374;2022-08-01T00:22:44;6.57;;;5.90;;
2055;SDS011;1033;52.560;13.374;2022-08-01T00:25:12;5.90;;;5.30;;
2055;SDS011;1033;52.560;13.374;2022-08-01T00:27:41;6.30;;;5.77;;
2055;SDS011;1033;52.560;13.374;2022-08-01T00:30:13;6.73;;;6.13;;
2055;SDS011;1033;52.560;13.374;2022-08-01T00:32:41;7.57;;;6.10;;
2055;SDS011;1033;52.560;13.374;2022-08-01T00:35:10;6.07;;;5.50;;
2055;SDS011;1033;52.560;13.374;2022-08-01T00:37:41;6.50;;;5.90;;
2055;SDS011;1033;52.560;13.374;2022-08-01T00:40:10;6.23;;;5.53;;
2055;SDS011;1033;52.560;13.374;2022-08-01T00:42:39;8.60;;;6.13;;
2055;SDS011;1033;52.560;13.374;2022-08-01T00:45:09;6.00;;;5.40;;
2055;SDS011;1033;52.560;13.374;2022-08-01T00:47:39;7.27;;;6.53;;
2055;SDS011;1033;52.560;13.374;2022-08-01T00:50:08;6.93;;;6.07;;
2055;SDS011;1033;52.560;13.374;2022-08-01T00:52:39;6.23;;;5.63;;
2055;SDS011;1033;52.560;13.374;2022-08-01T00:55:17;6.60;;;6.00;;
2055;SDS011;1033;52.560;13.374;2022-08-01T00:57:47;10.07;;;6.80;;
2055;SDS011;1033;52.560;13.374;2022-08-01T01:00:30;8.53;;;7.13;;
2055;SDS011;1033;52.560;13.374;2022-08-01T01:03:20;6.77;;;6.23;;
2055;SDS011;1033;52.560;13.374;2022-08-01T01:09:17;7.37;;;6.23;;
2055;SDS011;1033;52.560;13.374;2022-08-01T01:12:01;5.97;;;5.37;;
2055;SDS011;1033;52.560;13.374;2022-08-01T01:14:41;6.47;;;5.77;;
2055;SDS011;1033;52.560;13.374;2022-08-01T01:17:24;7.73;;;6.30;;
2055;SDS011;1033;52.560;13.374;2022-08-01T01:20:17;6.33;;;5.70;;
2055;SDS011;1033;52.560;13.374;2022-08-01T01:22:56;9.20;;;6.57;;
2055;SDS011;1033;52.560;13.374;2022-08-01T01:25:41;8.53;;;7.33;;
2055;SDS011;1033;52.560;13.374;2022-08-01T01:28:35;6.37;;;5.87;;
2055;SDS011;1033;52.560;13.374;2022-08-01T01:31:33;6.97;;;6.30;;
2055;SDS011;1033;52.560;13.374;2022-08-01T01:34:11;8.60;;;6.50;;
2055;SDS011;1033;52.560;13.374;2022-08-01T01:36:43;7.87;;;7.13;;
2055;SDS011;1033;52.560;13.374;2022-08-01T01:39:15;6.57;;;6.00;;
2055;SDS011;1033;52.560;13.374;2022-08-01T01:41:45;6.60;;;6.00;;
2055;SDS011;1033;52.560;13.374;2022-08-01T01:44:17;5.83;;;5.37;;
2055;SDS011;1033;52.560;13.374;2022-08-01T01:46:48;5.60;;;5.10;;
2055;SDS011;1033;52.560;13.374;2022-08-01T01:49:20;5.93;;;5.40;;
2055;SDS011;1033;52.560;13.374;2022-08-01T01:51:54;7.83;;;6.10;;
2055;SDS011;1033;52.560;13.374;2022-08-01T01:54:29;7.60;;;6.73;;
2055;SDS011;1033;52.560;13.374;2022-08-01T01:57:03;8.37;;;5.97;;
2055;SDS011;1033;52.560;13.374;2022-08-01T01:59:36;6.20;;;5.63;;
2055;SDS011;1033;52.560;13.374;2022-08-01T02:02:08;6.90;;;6.20;;
2055;SDS011;1033;52.560;13.374;2022-08-01T02:04:41;6.80;;;6.30;;
2055;SDS011;1033;52.560;13.374;2022-08-01T02:07:14;6.27;;;5.67;;
2055;SDS011;1033;52.560;13.374;2022-08-01T02:09:49;10.47;;;6.47;;
2055;SDS011;1033;52.560;13.374;2022-08-01T02:12:22;7.97;;;6.50;;
2055;SDS011;1033;52.560;13.374;2022-08-01T02:14:52;7.20;;;6.60;;
2055;SDS011;1033;52.560;13.374;2022-08-01T02:17:26;6.77;;;6.27;;
2055;SDS011;1033;52.560;13.374;2022-08-01T02:19:57;7.77;;;7.07;;
2055;SDS011;1033;52.560;13.374;2022-08-01T02:22:27;7.77;;;7.07;;
2055;SDS011;1033;52.560;13.374;2022-08-01T02:25:02;6.93;;;6.33;;
2055;SDS011;1033;52.560;13.374;2022-08-01T02:27:41;7.00;;;6.37;;
2055;SDS011;1033;52.560;13.374;2022-08-01T02:30:18;6.67;;;6.07;;
2055;SDS011;1033;52.560;13.374;2022-08-01T02:32:53;6.93;;;6.33;;
2055;SDS011;1033;52.560;13.374;2022-08-01T02:35:35;6.77;;;6.17;;
2055;SDS011;1033;52.560;13.374;2022-08-01T02:38:30;6.83;;;6.20;;
2055;SDS011;1033;52.560;13.374;2022-08-01T02:41:06;6.30;;;5.70;;
2055;SDS011;1033;52.560;13.374;2022-08-01T02:43:40;9.33;;;6.70;;
2055;SDS011;1033;52.560;13.374;2022-08-01T02:46:22;7.30;;;6.53;;
2055;SDS011;1033;52.560;13.374;2022-08-01T02:48:59;10.37;;;6.47;;
2055;SDS011;1033;52.560;13.374;2022-08-01T02:51:32;6.20;;;5.70;;
2055;SDS011;1033;52.560;13.374;2022-08-01T02:54:03;8.00;;;6.40;;
2055;SDS011;1033;52.560;13.374;2022-08-01T02:56:36;6.80;;;6.20;;
2055;SDS011;1033;52.560;13.374;2022-08-01T02:59:07;7.27;;;6.57;;
2055;SDS011;1033;52.560;13.374;2022-08-01T03:01:48;7.60;;;7.00;;
2055;SDS011;1033;52.560;13.374;2022-08-01T03:04:23;7.10;;;6.40;;
2055;SDS011;1033;52.560;13.374;2022-08-01T03:06:54;7.80;;;7.00;;
2055;SDS011;1033;52.560;13.374;2022-08-01T03:09:25;7.00;;;6.40;;
2055;SDS011;1033;52.560;13.374;2022-08-01T03:11:59;8.60;;;7.90;;
2055;SDS011;1033;52.560;13.374;2022-08-01T03:14:33;7.90;;;6.70;;
2055;SDS011;1033;52.560;13.374;2022-08-01T03:17:07;8.00;;;7.30;;
2055;SDS011;1033;52.560;13.374;2022-08-01T03:19:39;8.90;;;8.10;;
2055;SDS011;1033;52.560;13.374;2022-08-01T03:22:12;7.97;;;7.17;;
2055;SDS011;1033;52.560;13.374;2022-08-01T03:24:44;8.30;;;6.87;;
2055;SDS011;1033;52.560;13.374;2022-08-01T03:27:19;8.03;;;7.03;;
2055;SDS011;1033;52.560;13.374;2022-08-01T03:29:52;10.43;;;6.80;;
2055;SDS011;1033;52.560;13.374;2022-08-01T03:32:26;9.33;;;7.30;;
2055;SDS011;1033;52.560;13.374;2022-08-01T03:34:59;10.63;;;7.47;;
2055;SDS011;1033;52.560;13.374;2022-08-01T03:37:30;9.10;;;6.90;;
2055;SDS011;1033;52.560;13.374;2022-08-01T03:40:28;9.37;;;7.87;;
2055;SDS011;1033;52.560;13.374;2022-08-01T03:43:07;8.10;;;7.30;;
2055;SDS011;1033;52.560;13.374;2022-08-01T03:45:45;8.50;;;7.70;;
2055;SDS011;1033;52.560;13.374;2022-08-01T03:48:24;8.20;;;7.50;;
2055;SDS011;1033;52.560;13.374;2022-08-01T03:50:59;9.07;;;7.13;;
2055;SDS011;1033;52.560;13.374;2022-08-01T03:53:30;7.03;;;6.33;;
2055;SDS011;1033;52.560;13.374;2022-08-01T03:56:06;6.57;;;5.97;;
2055;SDS011;1033;52.560;13.374;2022-08-01T03:58:38;8.33;;;7.20;;
2055;SDS011;1033;52.560;13.374;2022-08-01T04:01:09;7.03;;;6.43;;
2055;SDS011;1033;52.560;13.374;2022-08-01T04:03:41;8.17;;;6.50;;
2055;SDS011;1033;52.560;13.374;2022-08-01T04:06:13;7.33;;;6.63;;
2055;SDS011;1033;52.560;13.374;2022-08-01T04:08:43;8.60;;;6.90;;
2055;SDS011;1033;52.560;13.374;2022-08-01T04:11:23;6.53;;;5.80;;
2055;SDS011;1033;52.560;13.374;2022-08-01T04:13:54;6.90;;;6.30;;
2055;SDS011;1033;52.560;13.374;2022-08-01T04:16:24;9.30;;;7.67;;
2055;SDS011;1033;52.560;13.374;2022-08-01T04:18:53;8.27;;;6.80;;
2055;SDS011;1033;52.560;13.374;2022-08-01T04:21:25;7.13;;;6.20;;
2055;SDS011;1033;52.560;13.374;2022-08-01T04:23:58;9.37;;;7.03;;
2055;SDS011;1033;52.560;13.374;2022-08-01T04:26:32;9.30;;;7.30;;
2055;SDS011;1033;52.560;13.374;2022-08-01T04:29:04;9.77;;;8.20;;
2055;SDS011;1033;52.560;13.374;2022-08-01T04:31:36;12.20;;;7.50;;
2055;SDS011;1033;52.560;13.374;2022-08-01T04:34:09;8.27;;;7.10;;
2055;SDS011;1033;52.560;13.374;2022-08-01T04:36:44;13.27;;;8.40;;
2055;SDS011;1033;52.560;13.374;2022-08-01T04:42:16;10.13;;;7.70;;
2055;SDS011;1033;52.560;13.374;2022-08-01T04:44:55;9.77;;;8.77;;
2055;SDS011;1033;52.560;13.374;2022-08-01T04:47:25;9.13;;;8.00;;
2055;SDS011;1033;52.560;13.374;2022-08-01T04:49:54;10.50;;;9.40;;
2055;SDS011;1033;52.560;13.374;2022-08-01T04:52:33;14.47;;;7.87;;
2055;SDS011;1033;52.560;13.374;2022-08-01T04:55:03;16.20;;;10.33;;
2055;SDS011;1033;52.560;13.374;2022-08-01T04:57:34;16.77;;;10.57;;
2055;SDS011;1033;52.560;13.374;2022-08-01T05:00:05;13.73;;;8.57;;
2055;SDS011;1033;52.560;13.374;2022-08-01T05:02:37;15.67;;;10.70;;
2055;SDS011;1033;52.560;13.374;2022-08-01T05:05:06;10.87;;;9.17;;
2055;SDS011;1033;52.560;13.374;2022-08-01T05:07:40;12.37;;;10.47;;
2055;SDS011;1033;52.560;13.374;2022-08-01T05:10:11;12.20;;;8.67;;
2055;SDS011;1033;52.560;13.374;2022-08-01T05:12:40;13.80;;;11.10;;
2055;SDS011;1033;52.560;13.374;2022-08-01T05:15:09;13.93;;;9.80;;
2055;SDS011;1033;52.560;13.374;2022-08-01T05:17:41;14.20;;;11.90;;
2055;SDS011;1033;52.560;13.374;2022-08-01T05:20:10;10.33;;;9.27;;
2055;SDS011;1033;52.560;13.374;2022-08-01T05:22:41;13.30;;;11.17;;
2055;SDS011;1033;52.560;13.374;2022-08-01T05:25:10;10.00;;;9.00;;
2055;SDS011;1033;52.560;13.374;2022-08-01T05:27:45;12.60;;;10.00;;
2055;SDS011;1033;52.560;13.374;2022-08-01T05:30:16;10.80;;;9.70;;
2055;SDS011;1033;52.560;13.374;2022-08-01T05:32:46;10.90;;;8.83;;
2055;SDS011;1033;52.560;13.374;2022-08-01T05:35:15;9.97;;;8.97;;
2055;SDS011;1033;52.560;13.374;2022-08-01T05:37:45;13.73;;;7.87;;
2055;SDS011;1033;52.560;13.374;2022-08-01T05:40:14;9.60;;;7.80;;
2055;SDS011;1033;52.560;13.374;2022-08-01T05:42:43;9.17;;;8.27;;
2055;SDS011;1033;52.560;13.374;2022-08-01T05:45:12;13.03;;;8.30;;
2055;SDS011;1033;52.560;13.374;2022-08-01T05:47:41;11.30;;;9.50;;
2055;SDS011;1033;52.560;13.374;2022-08-01T05:50:10;11.17;;;9.63;;
2055;SDS011;1033;52.560;13.374;2022-08-01T05:52:39;11.63;;;8.70;;
2055;SDS011;1033;52.560;13.374;2022-08-01T05:55:10;11.03;;;8.83;;
2055;SDS011;1033;52.560;13.374;2022-08-01T05:57:39;10.97;;;8.70;;
2055;SDS011;1033;52.560;13.374;2022-08-01T06:00:08;9.50;;;8.70;;
2055;SDS011;1033;52.560;13.374;2022-08-01T06:02:40;8.50;;;7.70;;
2055;SDS011;1033;52.560;13.374;2022-08-01T06:05:10;10.40;;;7.67;;
2055;SDS011;1033;52.560;13.374;2022-08-01T06:07:39;8.07;;;7.27;;
2055;SDS011;1033;52.560;13.374;2022-08-01T06:10:10;9.43;;;7.23;;
2055;SDS011;1033;52.560;13.374;2022-08-01T06:12:39;8.17;;;5.80;;
2055;SDS011;1033;52.560;13.374;2022-08-01T06:15:09;7.03;;;6.33;;
2055;SDS011;1033;52.560;13.374;2022-08-01T06:17:39;6.80;;;5.73;;
2055;SDS011;1033;52.560;13.374;2022-08-01T06:20:08;10.37;;;6.87;;
2055;SDS011;1033;52.560;13.374;2022-08-01T06:22:38;7.30;;;6.60;;
2055;SDS011;1033;52.560;13.374;2022-08-01T06:25:08;6.20;;;4.97;;
2055;SDS011;1033;52.560;13.374;2022-08-01T06:27:38;11.43;;;5.70;;
2055;SDS011;1033;52.560;13.374;2022-08-01T06:30:08;7.00;;;6.30;;
2055;SDS011;1033;52.560;13.374;2022-08-01T06:32:38;5.93;;;5.00;;
2055;SDS011;1033;52.560;13.374;2022-08-01T06:35:07;5.73;;;5.23;;
2055;SDS011;1033;52.560;13.374;2022-08-01T06:37:37;7.10;;;5.07;;
2055;SDS011;1033;52.560;13.374;2022-08-01T06:40:06;6.97;;;5.40;;
2055;SDS011;1033;52.560;13.374;2022-08-01T06:42:43;6.87;;;5.50;;
2055;SDS011;1033;52.560;13.374;2022-08-01T06:45:13;5.13;;;4.47;;
2055;SDS011;1033;52.560;13.374;2022-08-01T06:47:43;5.73;;;4.47;;
2055;SDS011;1033;52.560;13.374;2022-08-01T06:50:16;5.87;;;5.27;;
2055;SDS011;1033;52.560;13.374;2022-08-01T06:52:46;6.00;;;4.60;;
2055;SDS011;1033;52.560;13.374;2022-08-01T06:55:16;5.20;;;4.70;;
2055;SDS011;1033;52.560;13.374;2022-08-01T06:57:46;5.10;;;4.60;;
2055;SDS011;1033;52.560;13.374;2022-08-01T07:00:18;5.03;;;4.53;;
2055;SDS011;1033;52.560;13.374;2022-08-01T07:02:50;4.57;;;4.03;;
2055;SDS011;1033;52.560;13.374;2022-08-01T07:05:21;4.30;;;3.90;;
2055;SDS011;1033;52.560;13.374;2022-08-01T07:07:51;4.80;;;4.40;;
2055;SDS011;1033;52.560;13.374;2022-08-01T07:10:24;5.27;;;4.77;;
2055;SDS011;1033;52.560;13.374;2022-08-01T07:12:53;5.50;;;5.00;;
2055;SDS011;1033;52.560;13.374;2022-08-01T07:15:22;6.50;;;4.30;;
2055;SDS011;1033;52.560;13.374;2022-08-01T07:17:53;6.00;;;4.50;;
2055;SDS011;1033;52.560;13.374;2022-08-01T07:20:23;5.63;;;5.10;;
2055;SDS011;1033;52.560;13.374;2022-08-01T07:22:52;4.80;;;4.30;;
2055;SDS011;1033;52.560;13.374;2022-08-01T07:25:22;5.10;;;4.07;;
2055;SDS011;1033;52.560;13.374;2022-08-01T07:27:52;6.27;;;5.03;;
2055;SDS011;1033;52.560;13.374;2022-08-01T07:30:22;4.30;;;3.90;;
2055;SDS011;1033;52.560;13.374;2022-08-01T07:32:51;6.83;;;4.20;;
2055;SDS011;1033;52.560;13.374;2022-08-01T07:35:20;4.90;;;4.00;;
2055;SDS011;1033;52.560;13.374;2022-08-01T07:37:49;4.07;;;3.60;;
2055;SDS011;1033;52.560;13.374;2022-08-01T07:40:19;5.67;;;4.10;;
2055;SDS011;1033;52.560;13.374;2022-08-01T07:42:50;7.77;;;4.60;;
2055;SDS011;1033;52.560;13.374;2022-08-01T07:45:19;4.50;;;4.10;;
2055;SDS011;1033;52.560;13.374;2022-08-01T07:47:48;4.10;;;3.70;;
2055;SDS011;1033;52.560;13.374;2022-08-01T07:50:18;5.53;;;4.83;;
2055;SDS011;1033;52.560;13.374;2022-08-01T07:52:47;5.53;;;4.43;;
2055;SDS011;1033;52.560;13.374;2022-08-01T07:55:16;4.37;;;3.97;;
2055;SDS011;1033;52.560;13.374;2022-08-01T07:57:45;6.33;;;3.77;;
2055;SDS011;1033;52.560;13.374;2022-08-01T08:00:16;4.73;;;4.33;;
2055;SDS011;1033;52.560;13.374;2022-08-01T08:02:45;6.23;;;5.03;;
2055;SDS011;1033;52.560;13.374;2022-08-01T08:05:15;5.83;;;3.50;;
2055;SDS011;1033;52.560;13.374;2022-08-01T08:08:04;5.70;;;5.20;;
2055;SDS011;1033;52.560;13.374;2022-08-01T08:10:35;6.50;;;4.93;;
2055;SDS011;1033;52.560;13.374;2022-08-01T08:13:06;5.50;;;4.77;;
2055;SDS011;1033;52.560;13.374;2022-08-01T08:15:37;5.40;;;4.50;;
2055;SDS011;1033;52.560;13.374;2022-08-01T08:18:06;5.33;;;4.83;;
2055;SDS011;1033;52.560;13.374;2022-08-01T08:20:35;5.60;;;4.90;;
2055;SDS011;1033;52.560;13.374;2022-08-01T08:23:04;5.70;;;4.43;;
2055;SDS011;1033;52.560;13.374;2022-08-01T08:26:09;3.20;;;2.80;;
2055;SDS011;1033;52.560;13.374;2022-08-01T08:28:38;4.13;;;3.43;;
2055;SDS011;1033;52.560;13.374;2022-08-01T08:31:09;4.50;;;3.40;;
2055;SDS011;1033;52.560;13.374;2022-08-01T08:33:51;4.30;;;2.40;;
2055;SDS011;1033;52.560;13.374;2022-08-01T08:36:20;3.67;;;2.73;;
2055;SDS011;1033;52.560;13.374;2022-08-01T08:38:56;2.70;;;2.20;;
2055;SDS011;1033;52.560;13.374;2022-08-01T08:41:28;2.40;;;2.13;;
2055;SDS011;1033;52.560;13.374;2022-08-01T08:44:04;5.63;;;2.17;;
2055;SDS011;1033;52.560;13.374;2022-08-01T08:46:40;2.90;;;2.07;;
2055;SDS011;1033;52.560;13.374;2022-08-01T08:49:12;2.37;;;1.70;;
2055;SDS011;1033;52.560;13.374;2022-08-01T08:51:47;2.90;;;1.30;;
2055;SDS011;1033;52.560;13.374;2022-08-01T08:54:19;2.90;;;2.30;;
2055;SDS011;1033;52.560;13.374;2022-08-01T08:56:57;3.60;;;2.20;;
2055;SDS011;1033;52.560;13.374;2022-08-01T08:59:28;1.80;;;1.57;;
2055;SDS011;1033;52.560;13.374;2022-08-01T09:01:59;3.30;;;1.87;;
2055;SDS011;1033;52.560;13.374;2022-08-01T09:04:28;5.20;;;1.53;;
2055;SDS011;1033;52.560;13.374;2022-08-01T09:06:58;2.07;;;1.30;;
2055;SDS011;1033;52.560;13.374;2022-08-01T09:09:27;3.03;;;2.37;;
2055;SDS011;1033;52.560;13.374;2022-08-01T09:11:57;3.90;;;2.30;;
2055;SDS011;1033;52.560;13.374;2022-08-01T09:14:27;1.80;;;1.70;;
2055;SDS011;1033;52.560;13.374;2022-08-01T09:17:00;2.00;;;1.73;;
2055;SDS011;1033;52.560;13.374;2022-08-01T09:19:35;2.17;;;1.97;;
2055;SDS011;1033;52.560;13.374;2022-08-01T09:22:08;2.83;;;1.97;;
2055;SDS011;1033;52.560;13.374;2022-08-01T09:24:39;1.93;;;1.70;;
2055;SDS011;1033;52.560;13.374;2022-08-01T09:27:16;2.20;;;2.00;;
2055;SDS011;1033;52.560;13.374;2022-08-01T09:29:48;3.77;;;2.37;;
2055;SDS011;1033;52.560;13.374;2022-08-01T09:32:29;3.03;;;2.57;;
2055;SDS011;1033;52.560;13.374;2022-08-01T09:38:13;3.10;;;2.73;;
2055;SDS011;1033;52.560;13.374;2022-08-01T09:40:47;2.60;;;2.30;;
2055;SDS011;1033;52.560;13.374;2022-08-01T09:43:22;2.40;;;2.20;;
2055;SDS011;1033;52.560;13.374;2022-08-01T09:45:53;2.80;;;2.47;;
2055;SDS011;1033;52.560;13.374;2022-08-01T09:48:25;3.37;;;2.60;;
2055;SDS011;1033;52.560;13.374;2022-08-01T09:50:56;2.90;;;2.13;;
2055;SDS011;1033;52.560;13.374;2022-08-01T09:53:41;2.37;;;2.17;;
2055;SDS011;1033;52.560;13.374;2022-08-01T09:56:18;3.10;;;2.80;;
2055;SDS011;1033;52.560;13.374;2022-08-01T09:58:50;4.10;;;2.40;;
2055;SDS011;1033;52.560;13.374;2022-08-01T10:01:27;3.17;;;2.80;;
2055;SDS011;1033;52.560;13.374;2022-08-01T10:04:11;2.80;;;2.20;;
2055;SDS011;1033;52.560;13.374;2022-08-01T10:06:44;4.13;;;2.67;;
2055;SDS011;1033;52.560;13.374;2022-08-01T10:09:26;4.17;;;2.70;;
2055;SDS011;1033;52.560;13.374;2022-08-01T10:12:06;2.97;;;2.67;;
2055;SDS011;1033;52.560;13.374;2022-08-01T10:14:42;2.90;;;2.60;;
2055;SDS011;1033;52.560;13.374;2022-08-01T10:17:16;4.10;;;3.03;;
2055;SDS011;1033;52.560;13.374;2022-08-01T10:19:49;2.30;;;2.10;;
2055;SDS011;1033;52.560;13.374;2022-08-01T10:22:23;3.50;;;3.20;;
2055;SDS011;1033;52.560;13.374;2022-08-01T10:25:00;4.17;;;2.50;;
2055;SDS011;1033;52.560;13.374;2022-08-01T10:27:32;2.87;;;2.30;;
2055;SDS011;1033;52.560;13.374;2022-08-01T10:30:06;4.70;;;2.83;;
2055;SDS011;1033;52.560;13.374;2022-08-01T10:32:48;2.50;;;2.30;;
2055;SDS011;1033;52.560;13.374;2022-08-01T10:35:22;3.10;;;2.80;;
2055;SDS011;1033;52.560;13.374;2022-08-01T10:38:11;3.10;;;2.70;;
2055;SDS011;1033;52.560;13.374;2022-08-01T10:40:41;2.90;;;2.70;;
2055;SDS011;1033;52.560;13.374;2022-08-01T10:43:11;3.70;;;2.70;;
2055;SDS011;1033;52.560;13.374;2022-08-01T10:45:47;2.47;;;2.03;;
2055;SDS011;1033;52.560;13.374;2022-08-01T10:48:20;3.10;;;2.30;;
2055;SDS011;1033;52.560;13.374;2022-08-01T10:51:00;5.77;;;2.77;;
2055;SDS011;1033;52.560;13.374;2022-08-01T10:53:47;4.13;;;2.47;;
2055;SDS011;1033;52.560;13.374;2022-08-01T10:56:22;2.87;;;1.77;;
2055;SDS011;1033;52.560;13.374;2022-08-01T10:59:00;2.03;;;1.83;;
2055;SDS011;1033;52.560;13.374;2022-08-01T11:01:32;2.10;;;1.90;;
2055;SDS011;1033;52.560;13.374;2022-08-01T11:04:07;2.80;;;2.03;;
2055;SDS011;1033;52.560;13.374;2022-08-01T11:06:52;2.47;;;2.00;;
2055;SDS011;1033;52.560;13.374;2022-08-01T11:09:39;4.63;;;2.13;;
2055;SDS011;1033;52.560;13.374;2022-08-01T11:12:17;2.50;;;1.83;;
2055;SDS011;1033;52.560;13.374;2022-08-01T11:17:57;3.70;;;2.00;;
2055;SDS011;1033;52.560;13.374;2022-08-01T11:20:31;2.43;;;2.10;;
2055;SDS011;1033;52.560;13.374;2022-08-01T11:26:15;3.43;;;2.67;;
2055;SDS011;1033;52.560;13.374;2022-08-01T11:29:15;2.73;;;2.53;;
2055;SDS011;1033;52.560;13.374;2022-08-01T11:31:48;4.07;;;2.10;;
2055;SDS011;1033;52.560;13.374;2022-08-01T11:34:19;3.20;;;2.90;;
2055;SDS011;1033;52.560;13.374;2022-08-01T11:37:24;2.60;;;2.37;;
2055;SDS011;1033;52.560;13.374;2022-08-01T11:40:16;2.80;;;1.70;;
2055;SDS011;1033;52.560;13.374;2022-08-01T11:45:46;3.00;;;2.40;;
2055;SDS011;1033;52.560;13.374;2022-08-01T11:48:18;2.50;;;1.37;;
2055;SDS011;1033;52.560;13.374;2022-08-01T11:50:53;2.00;;;1.77;;
2055;SDS011;1033;52.560;13.374;2022-08-01T11:53:27;2.13;;;1.80;;
2055;SDS011;1033;52.560;13.374;2022-08-01T11:56:03;4.30;;;1.63;;
2055;SDS011;1033;52.560;13.374;2022-08-01T11:58:33;2.20;;;1.70;;
2055;SDS011;1033;52.560;13.374;2022-08-01T12:01:02;2.13;;;1.60;;
2055;SDS011;1033;52.560;13.374;2022-08-01T12:03:32;1.90;;;1.60;;
2055;SDS011;1033;52.560;13.374;2022-08-01T12:06:02;1.70;;;1.60;;
2055;SDS011;1033;52.560;13.374;2022-08-01T12:08:31;1.90;;;1.30;;
2055;SDS011;1033;52.560;13.374;2022-08-01T12:11:04;2.10;;;1.67;;
2055;SDS011;1033;52.560;13.374;2022-08-01T12:13:40;2.50;;;1.37;;
2055;SDS011;1033;52.560;13.374;2022-08-01T12:16:11;2.70;;;1.57;;
2055;SDS011;1033;52.560;13.374;2022-08-01T12:18:41;5.80;;;1.70;;
2055;SDS011;1033;52.560;13.374;2022-08-01T12:21:11;1.83;;;1.37;;
2055;SDS011;1033;52.560;13.374;2022-08-01T12:23:40;2.27;;;1.70;;
2055;SDS011;1033;52.560;13.374;2022-08-01T12:26:11;2.37;;;1.80;;
2055;SDS011;1033;52.560;13.374;2022-08-01T12:28:57;3.00;;;1.70;;
2055;SDS011;1033;52.560;13.374;2022-08-01T12:31:32;3.20;;;2.33;;
2055;SDS011;1033;52.560;13.374;2022-08-01T12:36:54;2.10;;;1.83;;
2055;SDS011;1033;52.560;13.374;2022-08-01T12:39:30;2.40;;;1.80;;
2055;SDS011;1033;52.560;13.374;2022-08-01T12:42:08;3.20;;;1.60;;
2055;SDS011;1033;52.560;13.374;2022-08-01T12:44:37;2.57;;;2.20;;
2055;SDS011;1033;52.560;13.374;2022-08-01T12:47:09;2.10;;;1.57;;
2055;SDS011;1033;52.560;13.374;2022-08-01T12:49:40;2.00;;;1.60;;
2055;SDS011;1033;52.560;13.374;2022-08-01T12:52:12;2.10;;;1.90;;
2055;SDS011;1033;52.560;13.374;2022-08-01T12:55:03;2.47;;;1.87;;
2055;SDS011;1033;52.560;13.374;2022-08-01T12:57:43;2.10;;;1.90;;
2055;SDS011;1033;52.560;13.374;2022-08-01T13:00:17;2.50;;;1.80;;
2055;SDS011;1033;52.560;13.374;2022-08-01T13:03:00;1.60;;;1.47;;
2055;SDS011;1033;52.560;13.374;2022-08-01T13:05:42;2.20;;;1.97;;
2055;SDS011;1033;52.560;13.374;2022-08-01T13:08:14;2.80;;;2.00;;
2055;SDS011;1033;52.560;13.374;2022-08-01T13:10:46;2.17;;;1.83;;
2055;SDS011;1033;52.560;13.374;2022-08-01T13:13:18;1.67;;;1.43;;
2055;SDS011;1033;52.560;13.374;2022-08-01T13:16:02;2.73;;;1.93;;
2055;SDS011;1033;52.560;13.374;2022-08-01T13:18:34;2.50;;;2.30;;
2055;SDS011;1033;52.560;13.374;2022-08-01T13:21:08;5.40;;;1.90;;
2055;SDS011;1033;52.560;13.374;2022-08-01T13:23:39;1.90;;;1.70;;
2055;SDS011;1033;52.560;13.374;2022-08-01T13:26:39;3.67;;;2.30;;
2055;SDS011;1033;52.560;13.374;2022-08-01T13:29:13;1.90;;;1.70;;
2055;SDS011;1033;52.560;13.374;2022-08-01T13:31:44;2.00;;;1.70;;
2055;SDS011;1033;52.560;13.374;2022-08-01T13:34:14;4.43;;;1.60;;
2055;SDS011;1033;52.560;13.374;2022-08-01T13:36:44;2.20;;;1.83;;
2055;SDS011;1033;52.560;13.374;2022-08-01T13:39:15;2.30;;;1.70;;
2055;SDS011;1033;52.560;13.374;2022-08-01T13:42:01;3.30;;;1.77;;
2055;SDS011;1033;52.560;13.374;2022-08-01T13:44:33;1.83;;;1.63;;
2055;SDS011;1033;52.560;13.374;2022-08-01T13:47:02;2.70;;;1.90;;
2055;SDS011;1033;52.560;13.374;2022-08-01T13:49:42;4.27;;;2.10;;
2055;SDS011;1033;52.560;13.374;2022-08-01T13:52:11;2.70;;;2.00;;
2055;SDS011;1033;52.560;13.374;2022-08-01T13:54:40;2.47;;;2.23;;
2055;SDS011;1033;52.560;13.374;2022-08-01T13:57:10;3.70;;;3.40;;
2055;SDS011;1033;52.560;13.374;2022-08-01T13:59:42;3.17;;;2.47;;
2055;SDS011;1033;52.560;13.374;2022-08-01T14:02:11;3.13;;;2.73;;
2055;SDS011;1033;52.560;13.374;2022-08-01T14:04:40;4.90;;;2.53;;
2055;SDS011;1033;52.560;13.374;2022-08-01T14:07:10;2.90;;;2.40;;
2055;SDS011;1033;52.560;13.374;2022-08-01T14:09:40;2.83;;;2.50;;
2055;SDS011;1033;52.560;13.374;2022-08-01T14:12:29;3.53;;;2.87;;
2055;SDS011;1033;52.560;13.374;2022-08-01T14:15:00;3.03;;;2.60;;
2055;SDS011;1033;52.560;13.374;2022-08-01T14:17:29;2.80;;;2.50;;
2055;SDS011;1033;52.560;13.374;2022-08-01T14:20:03;2.23;;;2.03;;
2055;SDS011;1033;52.560;13.374;2022-08-01T14:22:33;2.10;;;1.90;;
2055;SDS011;1033;52.560;13.374;2022-08-01T14:25:02;3.17;;;1.70;;
2055;SDS011;1033;52.560;13.374;2022-08-01T14:27:32;2.07;;;1.87;;
2055;SDS011;1033;52.560;13.374;2022-08-01T14:30:05;2.03;;;1.80;;
2055;SDS011;1033;52.560;13.374;2022-08-01T14:32:36;2.83;;;2.00;;
2055;SDS011;1033;52.560;13.374;2022-08-01T14:35:05;2.67;;;1.80;;
2055;SDS011;1033;52.560;13.374;2022-08-01T14:37:35;2.13;;;1.93;;
2055;SDS011;1033;52.560;13.374;2022-08-01T14:40:05;2.27;;;2.07;;
2055;SDS011;1033;52.560;13.374;2022-08-01T14:42:37;2.33;;;2.00;;
2055;SDS011;1033;52.560;13.374;2022-08-01T14:45:08;2.53;;;1.87;;
2055;SDS011;1033;52.560;13.374;2022-08-01T14:47:40;3.20;;;2.37;;
2055;SDS011;1033;52.560;13.374;2022-08-01T14:50:13;2.30;;;2.10;;
2055;SDS011;1033;52.560;13.374;2022-08-01T14:52:43;1.90;;;1.70;;
2055;SDS011;1033;52.560;13.374;2022-08-01T14:55:12;2.53;;;2.33;;
2055;SDS011;1033;52.560;13.374;2022-08-01T14:57:41;2.57;;;2.27;;
2055;SDS011;1033;52.560;13.374;2022-08-01T15:00:12;2.10;;;1.87;;
2055;SDS011;1033;52.560;13.374;2022-08-01T15:02:42;2.17;;;1.97;;
2055;SDS011;1033;52.560;13.374;2022-08-01T15:05:11;4.03;;;2.53;;
2055;SDS011;1033;52.560;13.374;2022-08-01T15:07:40;3.37;;;1.77;;
2055;SDS011;1033;52.560;13.374;2022-08-01T15:10:19;2.40;;;1.90;;
2055;SDS011;1033;52.560;13.374;2022-08-01T15:12:49;2.20;;;1.73;;
2055;SDS011;1033;52.560;13.374;2022-08-01T15:15:19;2.00;;;1.63;;
2055;SDS011;1033;52.560;13.374;2022-08-01T15:17:49;2.67;;;1.40;;
2055;SDS011;1033;52.560;13.374;2022-08-01T15:20:19;2.33;;;1.70;;
2055;SDS011;1033;52.560;13.374;2022-08-01T15:22:48;5.30;;;1.90;;
2055;SDS011;1033;52.560;13.374;2022-08-01T15:25:17;3.00;;;1.50;;
2055;SDS011;1033;52.560;13.374;2022-08-01T15:27:46;1.53;;;1.30;;
2055;SDS011;1033;52.560;13.374;2022-08-01T15:30:15;1.80;;;1.53;;
2055;SDS011;1033;52.560;13.374;2022-08-01T15:32:54;3.17;;;1.63;;
2055;SDS011;1033;52.560;13.374;2022-08-01T15:35:23;2.03;;;1.40;;
2055;SDS011;1033;52.560;13.374;2022-08-01T15:37:52;2.00;;;1.13;;
2055;SDS011;1033;52.560;13.374;2022-08-01T15:40:21;2.40;;;1.53;;
2055;SDS011;1033;52.560;13.374;2022-08-01T15:42:50;3.60;;;1.60;;
2055;SDS011;1033;52.560;13.374;2022-08-01T15:45:20;2.83;;;1.50;;
2055;SDS011;1033;52.560;13.374;2022-08-01T15:48:10;2.90;;;1.90;;
2055;SDS011;1033;52.560;13.374;2022-08-01T15:50:40;1.70;;;1.20;;
2055;SDS011;1033;52.560;13.374;2022-08-01T15:53:09;2.43;;;1.53;;
2055;SDS011;1033;52.560;13.374;2022-08-01T15:55:38;3.60;;;2.00;;
2055;SDS011;1033;52.560;13.374;2022-08-01T15:58:18;2.43;;;1.33;;